Latest Weather Observations for Townsville - Fanning River (Defence)

IDQ60801

Issued at 7:02 pm EST Thursday 19 October 2017 (issued every 30 minutes, with the page automatically refreshed every 10 minutes)

About weather observations | Map of weather stations | Latest weather observations for QLD | Other Formats
Station Details ID: 033328 Name: TOWNSVILLE- FANNING RIVER (DEFENCE) Lat: -19.78 Lon: 146.50 Height: 329.0 m
Data from the previous 72 hours. | See also: Recent months for locations in Queensland
Date/Time
EST
Temp
°C
App
Temp
°C
Dew
Point
°C
Rel
Hum
%
Delta-T
°C
Wind Press
QNH
hPa
Press
MSL
hPa
Rain since
9am
mm
Dir  Spd
km/h
Gust
km/h
Spd
kts
Gust
kts
19/07:00pm 21.3 24.3 20.8 97 0.3 ESE 6 11 3 6 1017.9 1016.0 46.6
19/06:30pm 20.8 23.9 20.3 97 0.3 NW 4 24 2 13 1017.8 1015.9 46.6
19/06:00pm 20.9 24.9 20.6 98 0.2 CALM 0 0 0 0 1017.2 1015.3 41.8
19/05:30pm 20.8 24.7 20.3 97 0.3 CALM 0 4 0 2 1016.9 1015.0 39.8
19/05:00pm 20.9 24.4 20.4 97 0.3 WNW 2 9 1 5 1016.5 1014.6 38.4
19/04:30pm 20.9 23.7 20.4 97 0.3 WNW 6 9 3 5 1016.3 1014.3 36.0
19/04:00pm 21.1 24.0 20.6 97 0.3 WNW 6 9 3 5 1016.1 1014.1 34.0
19/03:30pm 20.7 23.5 20.4 98 0.2 WNW 6 9 3 5 1016.3 1014.3 32.6
19/03:00pm 21.5 24.8 20.7 95 0.5 E 4 7 2 4 1016.6 1014.7 26.0
19/02:30pm 21.6 25.1 21.1 97 0.3 E 4 7 2 4 1017.0 1015.1 24.8
19/02:00pm 21.7 23.4 21.0 96 0.5 NE 13 22 7 12 1017.1 1015.2 22.2
19/01:30pm 23.2 25.9 22.2 94 0.7 ENE 11 19 6 10 1016.5 1014.6 14.6
19/01:00pm 22.7 25.3 21.9 95 0.5 E 11 22 6 12 1016.6 1014.7 14.0
19/12:30pm 22.8 25.1 22.1 96 0.5 ENE 13 22 7 12 1016.8 1014.9 10.0
19/12:00pm 22.6 24.4 21.8 95 0.5 E 15 24 8 13 1016.8 1014.9 7.2
19/11:30am 22.8 24.2 21.8 94 0.7 E 17 32 9 17 1016.7 1014.8 5.0
19/11:00am 23.0 24.9 22.0 94 0.7 E 15 28 8 15 1016.9 1015.0 3.8
19/10:30am 22.3 23.9 21.5 95 0.5 E 15 28 8 15 1017.1 1015.2 3.4
19/10:00am 22.5 24.5 21.5 94 0.7 E 13 24 7 13 1017.1 1015.2 1.8
19/09:30am 22.2 23.4 21.5 96 0.5 E 17 37 9 20 1017.3 1015.4 1.4
19/09:00am 21.8 23.7 21.3 97 0.3 E 13 24 7 13 1017.2 1015.3 13.6
19/08:30am 21.9 23.7 21.2 96 0.5 E 13 28 7 15 1016.8 1014.9 9.4
19/08:00am 21.5 23.6 21.0 97 0.3 ESE 11 28 6 15 1016.4 1014.5 9.0
19/07:30am 21.6 22.9 20.9 96 0.5 ESE 15 26 8 14 1016.1 1014.1 8.4
19/07:00am 21.7 23.4 20.9 95 0.5 ESE 13 20 7 11 1015.8 1013.9 8.2
19/06:30am 21.5 23.1 20.8 96 0.5 ESE 13 22 7 12 1015.4 1013.5 8.2
19/06:00am 21.3 22.8 20.6 96 0.5 E 13 22 7 12 1015.3 1013.4 8.2
19/05:30am 21.2 22.3 20.5 96 0.5 E 15 28 8 15 1015.1 1013.2 8.0
19/05:00am 21.2 22.3 20.5 96 0.5 ESE 15 26 8 14 1014.7 1012.8 7.6
19/04:30am 21.2 23.2 20.7 97 0.3 ESE 11 20 6 11 1014.4 1012.5 7.0
19/04:00am 21.4 22.2 20.6 95 0.5 ESE 17 30 9 16 1014.3 1012.4 5.6
19/03:30am 21.8 23.8 20.8 94 0.7 E 11 19 6 10 1014.2 1012.3 5.2
19/03:00am 21.6 23.2 20.8 95 0.5 ESE 13 22 7 12 1014.1 - 5.2
19/02:30am 21.3 23.7 20.8 97 0.3 ESE 9 17 5 9 1014.3 - 5.2
19/02:00am 21.3 23.7 20.8 97 0.3 E 9 17 5 9 1014.8 - 5.2
19/01:30am 21.2 24.1 20.7 97 0.3 E 6 11 3 6 1015.1 - 5.2
19/01:00am 21.1 24.0 20.6 97 0.3 E 6 9 3 5 1015.5 - 5.0
19/12:30am 21.2 23.5 20.7 97 0.3 E 9 17 5 9 1016.1 - 4.2
19/12:00am 21.2 22.7 20.5 96 0.5 E 13 30 7 16 1016.7 - 3.8
 
Date/Time
EST
Temp
°C
App
Temp
°C
Dew
Point
°C
Rel
Hum
%
Delta-T
°C
Wind Press
QNH
hPa
Press
MSL
hPa
Rain since
9am
mm
Dir  Spd
km/h
Gust
km/h
Spd
kts
Gust
kts
18/11:30pm 21.1 23.9 20.4 96 0.5 E 6 11 3 6 1016.9 - 3.0
18/11:00pm 21.3 23.8 20.3 94 0.7 ESE 7 17 4 9 1017.3 - 2.4
18/10:30pm 21.2 22.9 20.2 94 0.7 E 11 20 6 11 1017.1 - 2.4
18/10:00pm 21.1 22.8 20.1 94 0.6 E 11 20 6 11 1016.9 - 2.4
18/09:30pm 21.2 22.9 20.2 94 0.7 E 11 24 6 13 1016.9 - 2.4
18/09:00pm 21.3 23.9 20.5 95 0.5 E 7 11 4 6 1016.2 - 2.2
18/08:30pm 21.3 23.8 20.3 94 0.7 E 7 15 4 8 1015.7 - 2.2
18/08:00pm 21.3 23.5 20.3 94 0.7 E 9 17 5 9 1015.3 - 1.8
18/07:30pm 21.1 23.3 20.3 95 0.5 ESE 9 17 5 9 1014.7 - 1.6
18/07:00pm 21.0 23.6 20.5 97 0.3 E 7 15 4 8 1014.8 - 1.4
18/06:30pm 20.8 23.4 20.0 95 0.5 E 6 9 3 5 1015.0 - 1.2
18/06:00pm 22.3 24.5 19.3 83 1.9 ESE 6 9 3 5 1014.8 - 0.2
18/05:30pm 22.5 24.0 18.9 80 2.3 E 9 20 5 11 1014.4 - 0.2
18/05:00pm 23.3 22.7 18.8 76 2.9 ENE 20 32 11 17 1013.9 - 0.2
18/04:30pm 22.7 23.7 19.5 82 2.1 E 13 20 7 11 1013.5 - 0.2
18/04:00pm 23.8 25.5 20.1 80 2.4 E 11 20 6 11 1013.3 - 0.2
18/03:30pm 23.3 23.7 19.0 77 2.8 E 15 30 8 16 1012.8 - 0.2
18/03:00pm 24.2 23.4 17.9 68 4.0 E 19 30 10 16 1012.8 - 0.2
18/02:30pm 24.8 23.7 17.8 65 4.4 E 20 33 11 18 1013.1 - 0.2
18/02:00pm 25.5 25.5 18.2 64 4.7 E 15 24 8 13 1013.0 - 0.2
18/01:30pm 24.9 24.9 18.1 66 4.3 ESE 15 28 8 15 1013.2 - 0.2
18/01:00pm 24.6 25.4 18.1 67 4.1 E 11 22 6 12 1013.4 - 0.2
18/12:30pm 24.6 25.9 19.4 73 3.4 ESE 11 20 6 11 1014.2 - 0.2
18/12:00pm 23.6 24.3 18.9 75 3.0 ESE 13 26 7 14 1014.4 - 0.2
18/11:30am 22.9 23.8 19.3 80 2.3 ESE 13 22 7 12 1014.2 - 0.0
18/11:00am 22.4 23.2 19.0 81 2.2 ESE 13 26 7 14 1014.6 - 0.0
18/10:30am 22.0 23.0 19.4 85 1.7 E 13 22 7 12 1015.4 - 0.0
18/10:00am 21.5 22.6 18.9 85 1.7 ESE 11 19 6 10 1015.8 - 0.0
18/09:30am 21.3 22.2 18.5 84 1.8 ESE 11 20 6 11 1015.8 - 0.0
18/09:00am 20.7 21.6 18.3 86 1.5 E 11 20 6 11 1015.7 - 16.6
18/08:30am 20.6 21.5 18.5 88 1.3 E 11 20 6 11 1015.0 - 16.6
18/08:00am 20.1 21.8 18.4 90 1.1 ESE 7 15 4 8 1014.7 - 16.6
18/07:30am 19.8 21.6 18.3 91 0.9 E 6 9 3 5 1014.3 - 16.6
18/07:00am 19.4 20.8 17.9 91 0.9 E 7 15 4 8 1013.6 - 16.6
18/06:30am 19.4 21.1 18.1 92 0.8 E 6 11 3 6 1013.0 - 16.6
18/06:00am 19.4 21.0 18.2 93 0.8 E 7 11 4 6 1012.4 - 16.6
18/05:30am 19.3 20.1 18.1 93 0.8 E 11 20 6 11 1012.1 - 16.6
18/05:00am 19.3 20.3 18.6 96 0.4 E 11 17 6 9 1012.2 - 16.6
18/04:30am 19.4 20.0 18.6 95 0.5 ESE 13 20 7 11 1012.3 - 16.6
18/04:00am 19.5 20.8 18.5 94 0.6 ESE 9 13 5 7 1012.4 - 16.6
18/03:30am 19.4 21.1 18.6 95 0.5 ESE 7 19 4 10 1011.9 - 16.4
18/03:00am 19.3 21.9 18.5 95 0.5 E 2 4 1 2 1011.8 - 16.4
18/02:30am 19.1 20.3 18.3 95 0.5 ESE 9 13 5 7 1011.4 - 16.4
18/02:00am 19.0 20.9 18.5 97 0.3 ESE 6 11 3 6 1011.8 - 16.4
18/01:30am 19.1 20.9 18.8 98 0.2 ESE 7 9 4 5 1012.2 - 16.4
18/01:00am 19.1 21.5 18.8 98 0.2 ESE 4 9 2 5 1013.0 - 16.4
18/12:30am 19.0 21.4 18.7 98 0.2 E 4 9 2 5 1012.9 - 16.2
18/12:00am 19.0 20.4 18.7 98 0.2 E 9 17 5 9 1013.1 - 16.2
 
Date/Time
EST
Temp
°C
App
Temp
°C
Dew
Point
°C
Rel
Hum
%
Delta-T
°C
Wind Press
QNH
hPa
Press
MSL
hPa
Rain since
9am
mm
Dir  Spd
km/h
Gust
km/h
Spd
kts
Gust
kts
17/11:30pm 19.1 21.8 18.6 97 0.3 E 2 6 1 3 1013.7 - 16.0
17/11:00pm 19.2 21.4 18.4 95 0.5 E 4 9 2 5 1014.0 - 14.8
17/10:30pm 19.0 19.2 18.5 97 0.3 E 15 24 8 13 1013.0 - 14.2
17/10:00pm 19.2 21.6 18.9 98 0.2 E 4 6 2 3 1014.0 - 12.8
17/09:30pm 19.4 22.3 19.1 98 0.2 E 2 6 1 3 1015.0 - 12.4
17/09:00pm 19.3 22.2 19.0 98 0.2 E 2 6 1 3 1015.3 - 11.8
17/08:30pm 19.4 22.3 19.1 98 0.2 E 2 4 1 2 1014.3 - 11.0
17/08:00pm 19.4 22.6 18.9 97 0.3 CALM 0 0 0 0 1013.7 - 10.6
17/07:30pm 19.3 22.5 18.8 97 0.3 CALM 0 0 0 0 1013.8 - 10.6
17/07:00pm 19.4 22.6 18.9 97 0.3 CALM 0 0 0 0 1013.3 - 10.4
17/06:30pm 19.4 22.5 18.7 96 0.4 CALM 0 0 0 0 1013.1 - 10.4
17/06:00pm 19.4 22.5 18.7 96 0.4 CALM 0 4 0 2 1012.8 - 10.4
17/05:30pm 19.4 21.7 18.6 95 0.5 E 4 4 2 2 1012.1 - 10.4
17/05:00pm 19.2 22.1 18.2 94 0.6 CALM 0 0 0 0 1012.3 - 10.2
17/04:30pm 19.3 21.6 18.6 96 0.4 E 4 7 2 4 1012.5 - 9.8
17/04:00pm 19.3 21.9 18.3 94 0.6 E 2 7 1 4 1012.3 - 9.4
17/03:30pm 19.2 22.2 18.4 95 0.5 CALM 0 0 0 0 1012.4 - 8.4
17/03:00pm 19.2 20.9 18.4 95 0.5 ESE 7 11 4 6 1011.8 - 7.6
17/02:30pm 19.4 21.3 18.9 97 0.3 SE 7 11 4 6 1012.0 - 6.2
17/02:00pm 20.2 21.6 17.8 86 1.5 E 7 17 4 9 1012.9 - 1.6
17/01:30pm 22.1 23.0 18.5 80 2.3 SSW 11 17 6 9 1012.5 - 0.4
17/01:00pm 23.8 25.2 17.8 69 3.8 S 7 13 4 7 1012.5 - 0.0
17/12:30pm 24.1 25.2 17.1 65 4.4 S 7 15 4 8 1013.2 - 0.0
17/12:00pm 24.3 25.6 17.5 66 4.3 SE 7 13 4 7 1013.8 - 0.0
17/11:30am 24.0 25.4 17.7 68 4.0 ESE 7 13 4 7 1014.2 - 0.0
17/11:00am 23.8 25.2 17.8 69 3.8 E 7 15 4 8 1014.4 - 0.0
17/10:30am 22.6 23.8 17.3 72 3.3 ESE 7 13 4 7 1014.8 - 0.0
17/10:00am 22.4 23.8 17.3 73 3.2 E 6 13 3 7 1015.2 - 0.0
17/09:30am 21.9 22.7 16.4 71 3.4 SE 7 11 4 6 1015.1 - 0.0
17/09:00am 21.2 22.3 16.6 75 2.8 SE 6 9 3 5 1014.9 - 0.0
17/08:30am 20.0 21.3 17.0 83 1.8 ESE 6 9 3 5 1014.4 - 0.0
17/08:00am 19.2 20.5 17.2 88 1.2 SE 6 9 3 5 1014.2 - 0.0
17/07:30am 18.7 20.8 17.2 91 0.9 SSE 2 6 1 3 1013.8 - 0.0
17/07:00am 18.0 19.8 17.4 96 0.4 E 4 9 2 5 1013.2 - 0.0
17/06:30am 17.5 20.0 17.2 98 0.2 CALM 0 0 0 0 1012.9 - 0.0
17/06:00am 17.3 18.9 17.0 98 0.2 E 4 6 2 3 1012.0 - 0.0
17/05:30am 17.3 19.6 16.8 97 0.3 CALM 0 0 0 0 1012.3 - 0.0
17/05:00am 17.3 19.6 16.8 97 0.3 CALM 0 0 0 0 1012.1 - 0.0
17/04:30am 17.5 19.8 16.7 95 0.5 CALM 0 0 0 0 1011.3 - 0.0
17/04:00am 18.0 20.4 16.9 93 0.7 CALM 0 0 0 0 1010.8 - 0.0
17/03:30am 17.9 19.1 16.9 94 0.6 E 6 7 3 4 1011.2 - 0.0
17/03:00am 17.4 19.0 16.8 96 0.4 E 4 4 2 2 1011.4 - 0.0
17/02:30am 17.7 20.0 16.7 94 0.6 CALM 0 4 0 2 1011.6 - 0.0
17/02:00am 17.7 20.0 16.7 94 0.6 CALM 0 0 0 0 1012.1 - 0.0
17/01:30am 18.1 20.3 16.6 91 0.9 CALM 0 7 0 4 1012.9 - 0.0
17/01:00am 18.5 19.4 16.7 89 1.1 E 7 9 4 5 1012.5 - 0.0
17/12:30am 19.0 20.0 16.8 87 1.3 E 7 13 4 7 1013.1 - 0.0
17/12:00am 19.3 20.1 17.3 88 1.2 E 9 15 5 8 1013.4 - 0.0
 
Date/Time
EST
Temp
°C
App
Temp
°C
Dew
Point
°C
Rel
Hum
%
Delta-T
°C
Wind Press
QNH
hPa
Press
MSL
hPa
Rain since
9am
mm
Dir  Spd
km/h
Gust
km/h
Spd
kts
Gust
kts
16/11:30pm 19.6 20.5 18.3 92 0.8 ENE 11 20 6 11 1014.1 - 0.0
16/11:00pm 19.6 21.4 18.8 95 0.5 E 7 13 4 7 1014.4 - 0.0
16/10:30pm 19.5 21.4 18.5 94 0.6 E 6 9 3 5 1014.3 - 0.0
16/10:00pm 19.8 22.8 18.5 92 0.8 CALM 0 0 0 0 1014.8 - 0.0
16/09:30pm 19.9 21.9 18.7 93 0.8 E 6 7 3 4 1014.7 - 0.0
16/09:00pm 19.7 22.7 18.4 92 0.8 CALM 0 0 0 0 1014.2 - 0.0
16/08:30pm 19.7 22.7 18.4 92 0.8 CALM 0 0 0 0 1014.1 - 0.0
16/08:00pm 19.7 22.2 18.2 91 0.9 E 2 6 1 3 1014.1 - 0.0
16/07:30pm 19.9 21.0 18.0 89 1.2 E 9 17 5 9 1013.2 - 0.0

Other Formats:

Comma delimited format used in spreadsheet applications
http://www.bom.gov.au/fwo/IDQ60801/IDQ60801.94273.axf

JavaScript Object Notation format (JSON) in row-major order
http://www.bom.gov.au/fwo/IDQ60801/IDQ60801.94273.json